Time,TemperatureF,DewpointF,PressureIn,WindDirection,WindDirectionDegrees,WindSpeedMPH,WindSpeedGustMPH,Humidity,HourlyPrecipIn,Conditions,Clouds,dailyrainin,SolarRadiationWatts/m^2,SoftwareType,DateUTC
2013-02-10 00:21:00,23.0,15.0,-100.00,North,6,10.0,15.0,70,0.00,,,0.00,0.000000,,2013-02-10 07:21:00,
2013-02-10 00:31:00,23.0,15.0,-100.00,North,6,10.0,15.0,70,0.00,,,0.00,0.000000,,2013-02-10 07:31:00,
2013-02-10 00:41:00,23.0,15.0,-100.00,North,6,10.0,15.0,70,0.00,,,0.00,0.000000,,2013-02-10 07:41:00,
2013-02-10 00:51:00,23.0,15.0,-100.00,North,6,10.0,15.0,70,0.00,,,0.00,0.000000,,2013-02-10 07:51:00,
2013-02-10 01:21:00,21.0,14.0,-100.00,North,5,12.0,20.0,74,0.00,,,0.00,0.000000,,2013-02-10 08:21:00,
2013-02-10 01:32:00,21.0,14.0,-100.00,North,5,12.0,20.0,74,0.00,,,0.00,0.000000,,2013-02-10 08:32:00,
2013-02-10 01:43:00,21.0,14.0,-100.00,North,5,12.0,20.0,74,0.00,,,0.00,0.000000,,2013-02-10 08:43:00,
2013-02-10 01:52:00,21.0,14.0,-100.00,North,5,12.0,20.0,74,0.00,,,0.00,0.000000,,2013-02-10 08:52:00,
2013-02-10 02:21:00,21.0,13.0,-100.00,North,5,12.0,17.0,72,0.00,,,0.00,0.000000,,2013-02-10 09:21:00,
2013-02-10 02:31:00,21.0,13.0,-100.00,North,5,12.0,17.0,72,0.00,,,0.00,0.000000,,2013-02-10 09:31:00,
2013-02-10 02:41:00,21.0,13.0,-100.00,North,5,12.0,17.0,72,0.00,,,0.00,0.000000,,2013-02-10 09:41:00,
2013-02-10 02:51:00,21.0,13.0,-100.00,North,5,12.0,17.0,72,0.00,,,0.00,0.000000,,2013-02-10 09:51:00,
2013-02-10 03:21:00,21.0,11.0,-100.00,North,9,12.0,18.0,66,0.00,,,0.00,0.000000,,2013-02-10 10:21:00,
2013-02-10 03:31:00,21.0,11.0,-100.00,North,9,12.0,18.0,66,0.00,,,0.00,0.000000,,2013-02-10 10:31:00,
2013-02-10 03:41:00,21.0,11.0,-100.00,North,9,12.0,18.0,66,0.00,,,0.00,0.000000,,2013-02-10 10:41:00,
2013-02-10 03:51:00,21.0,11.0,-100.00,North,9,12.0,18.0,66,0.00,,,0.00,0.000000,,2013-02-10 10:51:00,
2013-02-10 04:21:00,20.0,11.0,-100.00,North,7,12.0,20.0,68,0.00,,,0.00,0.000000,,2013-02-10 11:21:00,
2013-02-10 04:32:00,20.0,11.0,-100.00,North,7,12.0,20.0,68,0.00,,,0.00,0.000000,,2013-02-10 11:32:00,
2013-02-10 04:42:00,20.0,11.0,-100.00,North,7,12.0,20.0,68,0.00,,,0.00,0.000000,,2013-02-10 11:42:00,
2013-02-10 04:52:00,20.0,11.0,-100.00,North,7,12.0,20.0,68,0.00,,,0.00,0.000000,,2013-02-10 11:52:00,
2013-02-10 08:21:00,16.0,8.0,-100.00,NNE,21,14.0,18.0,69,-99.99,,,0.00,11.000000,,2013-02-10 15:21:00,
2013-02-10 08:31:00,16.0,8.0,-100.00,NNE,21,14.0,18.0,69,-99.99,,,0.00,11.000000,,2013-02-10 15:31:00,
2013-02-10 08:41:00,16.0,8.0,-100.00,NNE,21,14.0,18.0,69,-99.99,,,0.00,11.000000,,2013-02-10 15:41:00,
2013-02-10 08:51:00,16.0,8.0,-100.00,NNE,21,14.0,18.0,69,-99.99,,,0.00,11.000000,,2013-02-10 15:51:00,
2013-02-10 09:21:00,18.0,8.0,-100.00,NNE,16,15.0,20.0,63,0.00,,,0.00,92.000000,,2013-02-10 16:21:00,
2013-02-10 09:32:00,18.0,8.0,-100.00,NNE,16,15.0,20.0,63,0.00,,,0.00,92.000000,,2013-02-10 16:32:00,
2013-02-10 09:42:00,18.0,8.0,-100.00,NNE,16,15.0,20.0,63,0.00,,,0.00,92.000000,,2013-02-10 16:42:00,
2013-02-10 09:51:00,18.0,8.0,-100.00,NNE,16,15.0,20.0,63,0.00,,,0.00,92.000000,,2013-02-10 16:51:00,
2013-02-10 10:21:00,19.0,8.0,-100.00,NNE,18,17.0,21.0,61,0.00,,,0.00,188.000000,,2013-02-10 17:21:00,
2013-02-10 10:32:00,19.0,8.0,-100.00,NNE,18,17.0,21.0,61,0.00,,,0.00,188.000000,,2013-02-10 17:32:00,
2013-02-10 10:42:00,19.0,8.0,-100.00,NNE,18,17.0,21.0,61,0.00,,,0.00,188.000000,,2013-02-10 17:42:00,
2013-02-10 10:52:00,19.0,8.0,-100.00,NNE,18,17.0,21.0,61,0.00,,,0.00,188.000000,,2013-02-10 17:52:00,
2013-02-10 11:21:00,20.0,6.0,-100.00,NNE,19,19.0,28.0,53,0.00,,,0.00,288.000000,,2013-02-10 18:21:00,
2013-02-10 11:32:00,20.0,6.0,-100.00,NNE,19,19.0,28.0,53,0.00,,,0.00,288.000000,,2013-02-10 18:32:00,
2013-02-10 11:41:00,20.0,6.0,-100.00,NNE,19,19.0,28.0,53,0.00,,,0.00,288.000000,,2013-02-10 18:41:00,
2013-02-10 11:51:00,20.0,6.0,-100.00,NNE,19,19.0,28.0,53,0.00,,,0.00,288.000000,,2013-02-10 18:51:00,
2013-02-10 12:21:00,22.0,4.0,-100.00,NNE,16,17.0,26.0,46,0.00,,,0.00,473.000000,,2013-02-10 19:21:00,
2013-02-10 12:32:00,22.0,4.0,-100.00,NNE,16,17.0,26.0,46,0.00,,,0.00,473.000000,,2013-02-10 19:32:00,
2013-02-10 12:42:00,22.0,4.0,-100.00,NNE,16,17.0,26.0,46,0.00,,,0.00,473.000000,,2013-02-10 19:42:00,
2013-02-10 12:51:00,22.0,4.0,-100.00,NNE,16,17.0,26.0,46,0.00,,,0.00,473.000000,,2013-02-10 19:51:00,
2013-02-10 13:21:00,22.0,0.0,-100.00,NNE,14,18.0,28.0,38,0.00,,,0.00,514.000000,,2013-02-10 20:21:00,
2013-02-10 13:32:00,22.0,0.0,-100.00,NNE,14,18.0,28.0,38,0.00,,,0.00,514.000000,,2013-02-10 20:32:00,
2013-02-10 13:42:00,22.0,0.0,-100.00,NNE,14,18.0,28.0,38,0.00,,,0.00,514.000000,,2013-02-10 20:42:00,
2013-02-10 13:52:00,22.0,0.0,-100.00,NNE,14,18.0,28.0,38,0.00,,,0.00,514.000000,,2013-02-10 20:52:00,
2013-02-10 14:21:00,22.0,1.0,-100.00,NNE,19,17.0,30.0,40,0.00,,,0.00,505.000000,,2013-02-10 21:21:00,
2013-02-10 14:32:00,22.0,1.0,-100.00,NNE,19,17.0,30.0,40,0.00,,,0.00,505.000000,,2013-02-10 21:32:00,
2013-02-10 14:42:00,22.0,1.0,-100.00,NNE,19,17.0,30.0,40,0.00,,,0.00,505.000000,,2013-02-10 21:42:00,
2013-02-10 14:51:00,22.0,1.0,-100.00,NNE,19,17.0,30.0,40,0.00,,,0.00,505.000000,,2013-02-10 21:51:00,
2013-02-10 15:21:00,22.0,-1.0,-100.00,NNE,14,18.0,26.0,35,0.00,,,0.00,452.000000,,2013-02-10 22:21:00,
2013-02-10 15:32:00,22.0,-1.0,-100.00,NNE,14,18.0,26.0,35,0.00,,,0.00,452.000000,,2013-02-10 22:32:00,
2013-02-10 15:42:00,22.0,-1.0,-100.00,NNE,14,18.0,26.0,35,0.00,,,0.00,452.000000,,2013-02-10 22:42:00,
2013-02-10 15:52:00,22.0,-1.0,-100.00,NNE,14,18.0,26.0,35,0.00,,,0.00,452.000000,,2013-02-10 22:52:00,
2013-02-10 16:21:00,21.0,-2.0,-100.00,NNE,12,16.0,27.0,35,0.00,,,0.00,349.000000,,2013-02-10 23:21:00,
2013-02-10 16:32:00,21.0,-2.0,-100.00,NNE,12,16.0,27.0,35,0.00,,,0.00,349.000000,,2013-02-10 23:32:00,
2013-02-10 16:41:00,21.0,-2.0,-100.00,NNE,12,16.0,27.0,35,0.00,,,0.00,349.000000,,2013-02-10 23:41:00,
2013-02-10 16:52:00,21.0,-2.0,-100.00,NNE,12,16.0,27.0,35,0.00,,,0.00,349.000000,,2013-02-10 23:52:00,
2013-02-10 17:22:00,20.0,-4.0,-100.00,North,9,14.0,24.0,34,0.00,,,0.00,143.000000,,2013-02-11 00:22:00,
2013-02-10 17:32:00,20.0,-4.0,-100.00,North,9,14.0,24.0,34,0.00,,,0.00,143.000000,,2013-02-11 00:32:00,
2013-02-10 17:41:00,20.0,-4.0,-100.00,North,9,14.0,24.0,34,0.00,,,0.00,143.000000,,2013-02-11 00:41:00,
2013-02-10 17:51:00,20.0,-4.0,-100.00,North,9,14.0,24.0,34,0.00,,,0.00,143.000000,,2013-02-11 00:51:00,
2013-02-10 18:21:00,18.0,-6.0,-100.00,North,6,10.0,19.0,34,0.00,,,0.00,28.000000,,2013-02-11 01:21:00,
2013-02-10 18:32:00,18.0,-6.0,-100.00,North,6,10.0,19.0,34,0.00,,,0.00,28.000000,,2013-02-11 01:32:00,
2013-02-10 18:41:00,18.0,-6.0,-100.00,North,6,10.0,19.0,34,0.00,,,0.00,28.000000,,2013-02-11 01:41:00,
2013-02-10 18:52:00,18.0,-6.0,-100.00,North,6,10.0,19.0,34,0.00,,,0.00,28.000000,,2013-02-11 01:52:00,
2013-02-10 19:21:00,17.0,-5.0,-100.00,North,6,12.0,20.0,36,0.00,,,0.00,1.000000,,2013-02-11 02:21:00,
2013-02-10 19:31:00,17.0,-5.0,-100.00,North,6,12.0,20.0,36,0.00,,,0.00,1.000000,,2013-02-11 02:31:00,
2013-02-10 19:41:00,17.0,-5.0,-100.00,North,6,12.0,20.0,36,0.00,,,0.00,1.000000,,2013-02-11 02:41:00,
2013-02-10 19:52:00,17.0,-5.0,-100.00,North,6,12.0,20.0,36,0.00,,,0.00,1.000000,,2013-02-11 02:52:00,
2013-02-10 20:21:00,10.0,-4.0,-100.00,North,10,13.0,17.0,53,0.00,,,0.00,0.000000,,2013-02-11 03:21:00,
2013-02-10 20:31:00,10.0,-4.0,-100.00,North,10,13.0,17.0,53,0.00,,,0.00,0.000000,,2013-02-11 03:31:00,
2013-02-10 20:41:00,10.0,-4.0,-100.00,North,10,13.0,17.0,53,0.00,,,0.00,0.000000,,2013-02-11 03:41:00,
2013-02-10 20:51:00,10.0,-4.0,-100.00,North,10,13.0,17.0,53,0.00,,,0.00,0.000000,,2013-02-11 03:51:00,
2013-02-10 21:21:00,8.0,-4.0,-100.00,NNE,21,15.0,18.0,56,0.00,,,-99.99,0.000000,,2013-02-11 04:21:00,
2013-02-10 21:31:00,8.0,-4.0,-100.00,NNE,21,15.0,18.0,56,0.00,,,-99.99,0.000000,,2013-02-11 04:31:00,
2013-02-10 21:41:00,8.0,-4.0,-100.00,NNE,21,15.0,18.0,56,0.00,,,-99.99,0.000000,,2013-02-11 04:41:00,
2013-02-10 21:51:00,8.0,-4.0,-100.00,NNE,21,15.0,18.0,56,0.00,,,-99.99,0.000000,,2013-02-11 04:51:00,
2013-02-10 22:22:00,5.0,-6.0,-100.00,North,9,10.0,16.0,59,0.00,,,0.00,0.000000,,2013-02-11 05:22:00,
2013-02-10 22:31:00,5.0,-6.0,-100.00,North,9,10.0,16.0,59,0.00,,,0.00,0.000000,,2013-02-11 05:31:00,
2013-02-10 22:41:00,5.0,-6.0,-100.00,North,9,10.0,16.0,59,0.00,,,0.00,0.000000,,2013-02-11 05:41:00,
2013-02-10 22:52:00,5.0,-6.0,-100.00,North,9,10.0,16.0,59,0.00,,,0.00,0.000000,,2013-02-11 05:52:00,
2013-02-10 23:21:00,6.0,-5.0,-100.00,North,354,7.0,13.0,59,0.00,,,0.00,0.000000,,2013-02-11 06:21:00,
2013-02-10 23:32:00,6.0,-5.0,-100.00,North,354,7.0,13.0,59,0.00,,,0.00,0.000000,,2013-02-11 06:32:00,
2013-02-10 23:42:00,6.0,-5.0,-100.00,North,354,7.0,13.0,59,0.00,,,0.00,0.000000,,2013-02-11 06:42:00,
2013-02-10 23:51:00,6.0,-5.0,-100.00,North,354,7.0,13.0,59,0.00,,,0.00,0.000000,,2013-02-11 06:51:00,